METAR Data
IDs: Format: Raw Decoded Include TAF

Data at: 0215 UTC 19 Oct 2021

KFSM 190153Z 15004KT 10SM CLR 17/07 A3007 RMK AO2 SLP181 T01670067
KFSM 190053Z 14003KT 10SM CLR 19/07 A3006 RMK AO2 SLP177 T01890067
KFSM 182353Z 16004KT 10SM CLR 21/07 A3004 RMK AO2 SLP170 T02060067 10244 20206 56009
KFSM 182253Z 16008KT 10SM CLR 23/07 A3004 RMK AO2 SLP171 T02330067
KFSM 182153Z 15009KT 10SM CLR 24/06 A3005 RMK AO2 SLP173 T02390056
KFSM 182053Z 13006KT 10SM CLR 24/06 A3007 RMK AO2 SLP178 T02440056 56035
KFSM 181953Z 19007KT 10SM CLR 24/07 A3008 RMK AO2 SLP184 T02440067
KFSM 181853Z 10SM CLR 23/09 A3012 RMK AO2 SLP198 T02280089
KFSM 181753Z VRB03KT 10SM CLR 21/09 A3017 RMK AO2 SLP214 T02110089 10217 20089 58018
KFSM 181653Z VRB03KT 10SM CLR 19/10 A3020 RMK AO2 SLP223 T01890100
KFSM 181553Z 05004KT 10SM CLR 16/10 A3021 RMK AO2 SLP228 T01610100
KFSM 181453Z 07004KT 10SM CLR 13/10 A3022 RMK AO2 SLP232 T01330100 53012
KFSM 181353Z 05006KT 10SM CLR 12/09 A3021 RMK AO2 SLP229 T01170094
KFSM 181253Z 06004KT 10SM CLR 09/08 A3019 RMK AO2 SLP223 T00890078
KFSM 181153Z 05005KT 10SM CLR 09/08 A3019 RMK AO2 SLP221 T00890078 10117 20083 53006
KFSM 181053Z 06003KT 10SM CLR 09/08 A3018 RMK AO2 SLP218 T00940083
KFSM 180953Z AUTO 08003KT 10SM CLR 09/08 A3017 RMK AO2 SLP215 T00940083
KFSM 180853Z AUTO 06003KT 10SM CLR 11/08 A3017 RMK AO2 SLP213 T01060083 57005
KFSM 180753Z AUTO 00000KT 10SM CLR 11/09 A3017 RMK AO2 SLP214 T01060089
KFSM 180653Z AUTO 07003KT 10SM CLR 11/09 A3018 RMK AO2 SLP218 T01110089
KFSM 180553Z AUTO 04003KT 10SM CLR 11/09 A3018 RMK AO2 SLP220 T01060089 10200 20100 402440067 58003
KFSM 180453Z AUTO 00000KT 10SM CLR 13/09 A3020 RMK AO2 SLP223 T01280094
KFSM 180353Z AUTO 00000KT 10SM CLR 13/11 A3020 RMK AO2 SLP223 T01330106
KFSM 180253Z 03003KT 10SM CLR 14/08 A3019 RMK AO2 SLP224 T01390083 53003
KFSM 180153Z 00000KT 10SM CLR 16/08 A3019 RMK AO2 SLP223 T01560083
KFSM 180053Z 00000KT 10SM CLR 17/08 A3019 RMK AO2 SLP221 T01670083
KFSM 172353Z 10003KT 10SM CLR 20/06 A3019 RMK AO2 SLP220 T02000056 10244 20200 56008
KFSM 172253Z 00000KT 10SM CLR 23/03 A3019 RMK AO2 SLP221 T02330033
KFSM 172153Z 31004KT 10SM CLR 24/02 A3020 RMK AO2 SLP224 T02390022
KFSM 172053Z 26006KT 10SM CLR 24/03 A3021 RMK AO2 SLP228 T02440033 56030
KFSM 171953Z AUTO 31006KT 10SM CLR 24/04 A3023 RMK AO2 SLP236 T02390044
KFSM 171853Z 25005KT 10SM CLR 23/03 A3026 RMK AO2 SLP247 T02280033
KFSM 171753Z VRB05KT 10SM CLR 22/06 A3030 RMK AO2 SLP259 T02170056 10217 20067 58015
KFSM 171653Z 00000KT 10SM CLR 18/07 A3033 RMK AO2 SLP268 T01830067
KFSM 171553Z 00000KT 10SM CLR 16/08 A3034 RMK AO2 SLP274 T01560078
KFSM 171453Z 06004KT 10SM CLR 12/08 A3034 RMK AO2 SLP275 T01220078 51007